Time;durP1;ratioP1;P1;durP2;ratioP2;P2;SDS_P1;SDS_P2;PMS_P1;PMS_P2;Temp;Humidity;BMP_temperature;BMP_pressure;BME280_temperature;BME280_humidity;BME280_pressure;Samples;Min_cycle;Max_cycle;Signal;HPM_P1;HPM_P2
2023/03/13 00:00:18;;;;;;;42.83;6.43;;;8.50;99.90;;;;;;4979071;28;20065;-57
2023/03/13 00:02:44;;;;;;;25.45;5.78;;;8.50;99.90;;;;;;4975943;28;20049;-58
2023/03/13 00:05:11;;;;;;;33.35;6.65;;;8.50;99.90;;;;;;4979028;28;20085;-57
2023/03/13 00:07:37;;;;;;;38.10;6.10;;;8.50;99.90;;;;;;4978172;28;20477;-57
2023/03/13 00:10:04;;;;;;;37.67;6.07;;;8.50;99.90;;;;;;4984284;28;20157;-57
2023/03/13 00:12:30;;;;;;;32.35;7.53;;;8.50;99.90;;;;;;4977247;28;20568;-57
2023/03/13 00:14:55;;;;;;;38.67;6.70;;;8.50;99.90;;;;;;4975538;28;20054;-56
2023/03/13 00:17:21;;;;;;;30.40;5.95;;;8.50;99.90;;;;;;4954120;28;20085;-57
2023/03/13 00:19:48;;;;;;;35.88;6.53;;;8.50;99.90;;;;;;4961153;28;20081;-57
2023/03/13 00:22:14;;;;;;;40.85;8.05;;;8.50;99.90;;;;;;4984851;28;20537;-57
2023/03/13 00:24:40;;;;;;;36.13;6.55;;;8.50;99.90;;;;;;4961444;28;20046;-58
2023/03/13 00:27:06;;;;;;;41.08;6.75;;;8.50;99.90;;;;;;4979667;28;20050;-57
2023/03/13 00:29:33;;;;;;;28.95;5.80;;;8.50;99.90;;;;;;4977080;28;20038;-58
2023/03/13 00:31:59;;;;;;;34.75;6.68;;;8.40;99.90;;;;;;4973558;28;20449;-57
2023/03/13 00:34:26;;;;;;;29.33;6.43;;;8.50;99.90;;;;;;4945963;28;20124;-57
2023/03/13 00:36:53;;;;;;;41.75;6.78;;;8.50;99.90;;;;;;4980827;28;20050;-57
2023/03/13 00:39:20;;;;;;;41.28;7.03;;;8.50;99.90;;;;;;4978478;28;20114;-58
2023/03/13 00:41:46;;;;;;;38.38;7.32;;;8.50;99.90;;;;;;4978035;28;20509;-58
2023/03/13 00:44:12;;;;;;;32.13;7.18;;;8.50;99.90;;;;;;4978135;28;20046;-58
2023/03/13 00:46:38;;;;;;;42.05;8.18;;;8.50;99.90;;;;;;4959756;28;20054;-57
2023/03/13 00:49:05;;;;;;;37.53;6.80;;;8.50;99.90;;;;;;4984027;28;20049;-57
2023/03/13 00:51:31;;;;;;;38.22;7.55;;;8.50;99.90;;;;;;4962516;28;20046;-58
2023/03/13 00:54:01;;;;;;;47.63;7.97;;;8.50;99.90;;;;;;4983232;28;20046;-57
2023/03/13 00:56:27;;;;;;;45.92;8.93;;;8.50;99.90;;;;;;4982218;28;20416;-57
2023/03/13 00:58:53;;;;;;;36.20;7.03;;;8.50;99.90;;;;;;4978684;28;20268;-58
2023/03/13 01:01:30;;;;;;;33.72;7.53;;;8.50;99.90;;;;;;4983625;28;20064;-58
2023/03/13 01:04:00;;;;;;;36.50;7.53;;;8.50;99.90;;;;;;4982270;28;20053;-58
2023/03/13 01:06:28;;;;;;;38.95;7.90;;;8.50;99.90;;;;;;4984445;28;20049;-57
2023/03/13 01:08:54;;;;;;;39.35;6.90;;;8.50;99.90;;;;;;4982763;28;20050;-58
2023/03/13 01:11:26;;;;;;;32.85;7.95;;;8.50;99.90;;;;;;4983074;28;20069;-58
2023/03/13 01:13:57;;;;;;;38.20;7.93;;;8.50;99.90;;;;;;4981999;28;20089;-58
2023/03/13 01:16:24;;;;;;;36.47;7.20;;;8.50;99.90;;;;;;4983111;28;20050;-57
2023/03/13 01:18:56;;;;;;;40.03;7.35;;;8.50;99.90;;;;;;4979507;28;20046;-56
2023/03/13 01:21:23;;;;;;;37.55;7.78;;;8.50;99.90;;;;;;4982350;28;20053;-58
2023/03/13 01:23:50;;;;;;;33.97;7.90;;;8.50;99.90;;;;;;4983461;28;20518;-58
2023/03/13 01:26:17;;;;;;;37.30;7.30;;;8.50;99.90;;;;;;4980680;28;20050;-58
2023/03/13 01:28:43;;;;;;;39.50;7.80;;;8.50;99.90;;;;;;4968709;28;20192;-58
2023/03/13 01:31:14;;;;;;;34.70;7.10;;;8.60;99.90;;;;;;4986918;28;20084;-56
2023/03/13 01:33:41;;;;;;;35.00;7.55;;;8.60;99.90;;;;;;4966545;28;20049;-58
2023/03/13 01:36:07;;;;;;;40.45;7.28;;;8.50;99.90;;;;;;4978736;28;20532;-57
2023/03/13 01:38:33;;;;;;;38.92;7.13;;;8.50;99.90;;;;;;4968576;28;20117;-58
2023/03/13 01:40:59;;;;;;;31.75;7.50;;;8.60;99.90;;;;;;4985432;28;20049;-57
2023/03/13 01:43:28;;;;;;;34.38;7.55;;;8.60;99.90;;;;;;4988119;28;20050;-58
2023/03/13 01:46:00;;;;;;;38.97;7.57;;;8.60;99.90;;;;;;4966416;28;20229;-57
2023/03/13 01:48:47;;;;;;;36.47;8.00;;;8.60;99.90;;;;;;4985238;28;20046;-58
2023/03/13 01:51:20;;;;;;;27.88;7.57;;;8.60;99.90;;;;;;4983885;28;21016;-57
2023/03/13 01:53:53;;;;;;;37.50;7.53;;;8.60;99.90;;;;;;4983065;28;20567;-57
2023/03/13 01:56:21;;;;;;;;;;;8.60;99.90;;;;;;4984849;28;20049;-58
2023/03/13 01:58:49;;;;;;;37.25;7.18;;;8.60;99.90;;;;;;4982555;28;20377;-57
2023/03/13 02:01:16;;;;;;;34.13;7.50;;;8.60;99.90;;;;;;4985008;28;20053;-58
2023/03/13 02:03:43;;;;;;;34.70;6.82;;;8.60;99.90;;;;;;4983290;28;20484;-57
2023/03/13 02:06:09;;;;;;;38.88;7.47;;;8.70;99.90;;;;;;4979987;28;20501;-58
2023/03/13 02:09:04;;;;;;;35.20;6.75;;;8.70;99.90;;;;;;4983431;28;20034;-58
2023/03/13 02:11:48;;;;;;;34.30;7.13;;;8.60;99.90;;;;;;4980883;28;20046;-58
2023/03/13 02:14:17;;;;;;;30.88;7.25;;;8.60;99.90;;;;;;4965625;28;20421;-58
2023/03/13 02:16:47;;;;;;;34.03;6.60;;;8.60;99.90;;;;;;4974320;28;20145;-57
2023/03/13 02:19:32;;;;;;;33.88;7.30;;;8.60;99.90;;;;;;4980693;28;20053;-58
2023/03/13 02:22:19;;;;;;;37.90;8.02;;;8.60;99.90;;;;;;4952686;28;20193;-57
2023/03/13 02:24:48;;;;;;;38.03;7.43;;;8.60;99.90;;;;;;4963131;28;20057;-58
2023/03/13 02:27:14;;;;;;;30.58;7.10;;;8.60;99.90;;;;;;4978532;28;20133;-57
2023/03/13 02:29:41;;;;;;;31.67;7.15;;;8.50;99.90;;;;;;4980894;28;20092;-57
2023/03/13 02:32:07;;;;;;;33.70;8.02;;;8.50;99.90;;;;;;4981875;28;20046;-58
2023/03/13 02:34:36;;;;;;;27.67;6.88;;;8.50;99.90;;;;;;4984972;28;20100;-58
2023/03/13 02:37:05;;;;;;;32.33;7.07;;;8.50;99.90;;;;;;4964067;28;20500;-57
2023/03/13 02:39:32;;;;;;;35.78;7.68;;;8.50;99.90;;;;;;4982950;28;20047;-58
2023/03/13 02:42:00;;;;;;;28.27;7.38;;;8.50;99.90;;;;;;4960967;28;21529;-58
2023/03/13 02:44:26;;;;;;;30.30;6.95;;;8.50;99.90;;;;;;4966423;28;20492;-58
2023/03/13 02:46:52;;;;;;;24.73;6.30;;;8.50;99.90;;;;;;4981861;28;20046;-56
2023/03/13 02:49:22;;;;;;;33.05;6.15;;;8.50;99.90;;;;;;4942752;28;20112;-57
2023/03/13 02:51:48;;;;;;;31.75;6.40;;;8.50;99.90;;;;;;4961335;28;20122;-57
2023/03/13 02:54:19;;;;;;;23.42;5.60;;;8.50;99.90;;;;;;4980599;28;20191;-58
2023/03/13 02:56:48;;;;;;;19.25;5.18;;;8.50;99.90;;;;;;4963295;28;20120;-58
2023/03/13 02:59:14;;;;;;;17.67;5.55;;;8.60;99.90;;;;;;4980239;28;20054;-58
2023/03/13 03:01:40;;;;;;;15.65;4.97;;;8.60;99.90;;;;;;4978719;28;20053;-57
2023/03/13 03:04:06;;;;;;;16.75;5.18;;;8.60;99.90;;;;;;4981483;28;20046;-57
2023/03/13 03:06:31;;;;;;;19.70;5.43;;;8.70;99.90;;;;;;4978559;28;20405;-58
2023/03/13 03:08:57;;;;;;;11.55;4.47;;;8.70;99.90;;;;;;4976685;28;20473;-58
2023/03/13 03:11:23;;;;;;;15.50;4.97;;;8.70;99.90;;;;;;4976512;28;20046;-57
2023/03/13 03:13:49;;;;;;;14.00;4.55;;;8.80;99.90;;;;;;4984893;28;20050;-58
2023/03/13 03:16:17;;;;;;;16.60;4.57;;;8.80;99.90;;;;;;4981207;28;20389;-57
2023/03/13 03:18:43;;;;;;;11.85;4.28;;;8.80;99.90;;;;;;4954059;28;25072;-58
2023/03/13 03:21:09;;;;;;;12.65;3.90;;;8.80;99.90;;;;;;4966111;28;20046;-57
2023/03/13 03:23:36;;;;;;;10.65;3.80;;;8.80;99.90;;;;;;4960553;28;20046;-57
2023/03/13 03:26:05;;;;;;;9.75;3.92;;;8.90;99.90;;;;;;4961883;28;20042;-58
2023/03/13 03:28:31;;;;;;;11.73;4.40;;;8.90;99.90;;;;;;4987055;28;21024;-58
2023/03/13 03:31:02;;;;;;;10.25;4.00;;;8.90;99.90;;;;;;4980363;28;20089;-57
2023/03/13 03:33:28;;;;;;;10.82;3.58;;;9.00;99.90;;;;;;4982286;28;20053;-58
2023/03/13 03:36:02;;;;;;;11.38;3.90;;;8.90;99.90;;;;;;4980154;28;20054;-58
2023/03/13 03:38:28;;;;;;;7.60;3.75;;;9.00;99.90;;;;;;4982207;28;20057;-57
2023/03/13 03:40:54;;;;;;;10.60;3.70;;;9.00;99.90;;;;;;4977304;28;20054;-58
2023/03/13 03:43:20;;;;;;;8.40;4.13;;;9.00;99.90;;;;;;4968959;28;20081;-58
2023/03/13 03:45:45;;;;;;;7.75;3.50;;;9.10;99.90;;;;;;4947712;28;20046;-58
2023/03/13 03:48:11;;;;;;;8.68;3.65;;;9.10;99.90;;;;;;4980772;28;20046;-58
2023/03/13 03:50:37;;;;;;;8.63;3.88;;;9.10;99.90;;;;;;4977388;28;20106;-58
2023/03/13 03:53:03;;;;;;;10.55;3.92;;;9.10;99.90;;;;;;4983979;28;20042;-57
2023/03/13 03:55:28;;;;;;;8.77;3.78;;;9.10;99.90;;;;;;4976142;28;20050;-58
2023/03/13 03:57:54;;;;;;;7.68;3.67;;;9.10;99.90;;;;;;4963426;28;20060;-57
2023/03/13 04:00:20;;;;;;;7.18;3.67;;;9.20;99.90;;;;;;4981031;28;20046;-58
2023/03/13 04:02:47;;;;;;;6.72;3.33;;;9.10;99.90;;;;;;4981710;28;20050;-58
2023/03/13 04:05:13;;;;;;;8.38;3.70;;;9.20;99.90;;;;;;4980670;28;20950;-58
2023/03/13 04:07:38;;;;;;;7.40;3.70;;;9.20;99.90;;;;;;4982529;28;20136;-58
2023/03/13 04:10:05;;;;;;;4.32;3.33;;;9.20;99.90;;;;;;4978126;28;20050;-58
2023/03/13 04:12:31;;;;;;;6.25;3.30;;;9.20;99.90;;;;;;4979321;28;20054;-58
2023/03/13 04:14:56;;;;;;;7.05;3.47;;;9.30;99.90;;;;;;4977750;28;20046;-58
2023/03/13 04:17:22;;;;;;;5.47;3.22;;;9.30;99.90;;;;;;4960531;28;20180;-58
2023/03/13 04:19:48;;;;;;;5.50;3.70;;;9.30;99.90;;;;;;4966496;28;20091;-57
2023/03/13 04:22:14;;;;;;;6.10;3.42;;;9.30;99.90;;;;;;4982273;28;20056;-58
2023/03/13 04:24:39;;;;;;;6.65;4.05;;;9.40;99.90;;;;;;4981004;28;20038;-58
2023/03/13 04:27:05;;;;;;;6.93;3.90;;;9.40;99.90;;;;;;4976325;28;20054;-58
2023/03/13 04:29:32;;;;;;;10.40;4.68;;;9.40;99.90;;;;;;4962652;28;20405;-57
2023/03/13 04:31:58;;;;;;;6.20;4.80;;;9.40;99.90;;;;;;4978079;28;20061;-58
2023/03/13 04:34:23;;;;;;;8.73;5.65;;;9.50;99.90;;;;;;4981511;28;20046;-57
2023/03/13 04:36:49;;;;;;;10.70;6.30;;;9.50;99.90;;;;;;4979600;28;20477;-58
2023/03/13 04:39:15;;;;;;;9.90;6.63;;;9.60;99.90;;;;;;4975870;28;20050;-57
2023/03/13 04:41:41;;;;;;;10.20;7.13;;;9.70;99.90;;;;;;4979992;28;20484;-58
2023/03/13 04:44:07;;;;;;;12.85;7.10;;;9.70;99.90;;;;;;4980248;28;20056;-58
2023/03/13 04:46:32;;;;;;;13.65;7.63;;;9.70;99.90;;;;;;4978407;28;20457;-58
2023/03/13 04:48:58;;;;;;;12.90;7.90;;;9.70;99.90;;;;;;4974849;28;20162;-57
2023/03/13 04:51:24;;;;;;;12.38;7.57;;;9.80;99.90;;;;;;4958251;28;20475;-58
2023/03/13 04:53:50;;;;;;;16.92;9.43;;;9.80;99.90;;;;;;4974882;28;20474;-58
2023/03/13 04:56:23;;;;;;;20.65;9.32;;;9.90;99.90;;;;;;4964910;28;20045;-58
2023/03/13 04:58:49;;;;;;;15.68;9.13;;;9.90;99.90;;;;;;4964641;28;20493;-58
2023/03/13 05:01:15;;;;;;;17.40;8.70;;;10.00;99.90;;;;;;4976840;28;20050;-57
2023/03/13 05:03:41;;;;;;;16.77;10.00;;;10.00;99.90;;;;;;4979443;28;20046;-58
2023/03/13 05:06:07;;;;;;;14.70;7.47;;;10.00;99.90;;;;;;4980586;28;20047;-56
2023/03/13 05:08:35;;;;;;;15.05;8.50;;;10.10;99.90;;;;;;4946674;28;20410;-57
2023/03/13 05:11:01;;;;;;;12.93;7.20;;;10.10;99.90;;;;;;4981603;28;20042;-58
2023/03/13 05:13:27;;;;;;;14.68;7.72;;;10.20;99.90;;;;;;4961581;28;20122;-58
2023/03/13 05:15:53;;;;;;;16.65;7.60;;;10.20;99.90;;;;;;4977027;28;20212;-58
2023/03/13 05:18:19;;;;;;;16.73;8.32;;;10.30;99.90;;;;;;4979673;28;20133;-58
2023/03/13 05:20:44;;;;;;;18.75;8.13;;;10.30;99.90;;;;;;4980190;28;20257;-58
2023/03/13 05:23:10;;;;;;;20.55;8.45;;;10.40;99.90;;;;;;4964715;28;20046;-58
2023/03/13 05:25:36;;;;;;;21.55;7.95;;;10.50;99.90;;;;;;4982741;28;20038;-58
2023/03/13 05:28:02;;;;;;;18.30;7.55;;;10.50;99.90;;;;;;4980770;28;20038;-58
2023/03/13 05:30:28;;;;;;;20.35;7.50;;;10.60;99.90;;;;;;4980382;28;20476;-58
2023/03/13 05:32:54;;;;;;;18.02;6.80;;;10.60;99.90;;;;;;4983075;28;20044;-58
2023/03/13 05:35:20;;;;;;;19.48;6.30;;;10.70;99.90;;;;;;4979501;28;20046;-57
2023/03/13 05:37:46;;;;;;;18.30;6.30;;;10.70;99.90;;;;;;4979783;28;20034;-58
2023/03/13 05:40:12;;;;;;;16.75;5.65;;;10.70;99.90;;;;;;4981502;28;20046;-58
2023/03/13 05:42:38;;;;;;;14.25;5.60;;;10.80;99.90;;;;;;4982449;28;20053;-58
2023/03/13 05:45:05;;;;;;;15.93;5.40;;;10.80;99.90;;;;;;4962941;28;20493;-58
2023/03/13 05:47:31;;;;;;;13.90;5.07;;;10.80;99.90;;;;;;4977257;28;20050;-58
2023/03/13 05:49:56;;;;;;;13.40;5.53;;;10.90;99.90;;;;;;4978184;28;20088;-58
2023/03/13 05:52:22;;;;;;;14.25;5.80;;;10.90;99.90;;;;;;4981944;28;20739;-58
2023/03/13 05:54:48;;;;;;;15.25;5.55;;;10.90;99.90;;;;;;4976292;28;20038;-58
2023/03/13 05:57:14;;;;;;;14.77;5.10;;;10.90;99.90;;;;;;4970913;28;20081;-58
2023/03/13 05:59:40;;;;;;;14.15;5.22;;;10.90;99.90;;;;;;4961577;28;20039;-58
2023/03/13 06:02:05;;;;;;;15.27;5.05;;;10.90;99.90;;;;;;4981866;28;20112;-58
2023/03/13 06:04:32;;;;;;;16.60;5.63;;;10.90;99.90;;;;;;4962482;28;20078;-58
2023/03/13 06:06:58;;;;;;;20.67;6.07;;;10.90;99.90;;;;;;4977038;28;20501;-58
2023/03/13 06:09:23;;;;;;;19.02;6.00;;;10.90;99.90;;;;;;4979803;28;20057;-58
2023/03/13 06:11:49;;;;;;;17.23;5.07;;;10.90;99.90;;;;;;4963890;28;20046;-58
2023/03/13 06:14:15;;;;;;;14.27;5.15;;;10.90;99.90;;;;;;4986580;28;20061;-58
2023/03/13 06:16:41;;;;;;;20.80;5.25;;;10.90;99.90;;;;;;4978868;28;20057;-58
2023/03/13 06:19:06;;;;;;;15.40;4.97;;;10.90;99.90;;;;;;4980841;28;20389;-58
2023/03/13 06:21:32;;;;;;;11.93;5.25;;;11.00;99.90;;;;;;4971023;28;20132;-58
2023/03/13 06:23:58;;;;;;;22.58;6.15;;;10.90;99.90;;;;;;4978904;28;20609;-58
2023/03/13 06:26:24;;;;;;;24.52;5.88;;;10.90;99.90;;;;;;4977101;28;20046;-59
2023/03/13 06:28:50;;;;;;;22.02;5.47;;;11.00;99.90;;;;;;4982827;28;20624;-59
2023/03/13 06:31:16;;;;;;;21.25;6.13;;;11.00;99.90;;;;;;4981591;28;20524;-58
2023/03/13 06:33:42;;;;;;;17.23;5.88;;;10.90;99.90;;;;;;4970004;28;20046;-58
2023/03/13 06:36:08;;;;;;;13.55;5.32;;;10.90;99.90;;;;;;4968678;28;20077;-58
2023/03/13 06:38:34;;;;;;;18.65;5.75;;;10.90;99.90;;;;;;4961513;28;20054;-58
2023/03/13 06:41:01;;;;;;;15.45;4.97;;;11.00;99.90;;;;;;4981399;28;20058;-57
2023/03/13 06:43:27;;;;;;;17.60;5.35;;;11.00;99.90;;;;;;4982409;28;20077;-58
2023/03/13 06:45:52;;;;;;;18.05;5.90;;;11.00;99.90;;;;;;4945189;28;20131;-58
2023/03/13 06:48:20;;;;;;;20.55;5.50;;;11.00;99.90;;;;;;4966107;28;20234;-58
2023/03/13 06:50:46;;;;;;;14.85;5.82;;;11.00;99.90;;;;;;4981637;28;20481;-58
2023/03/13 06:53:17;;;;;;;18.00;5.82;;;11.00;99.90;;;;;;4986416;28;20041;-58
2023/03/13 06:55:44;;;;;;;23.35;6.32;;;11.00;99.90;;;;;;4974685;28;20680;-58
2023/03/13 06:58:10;;;;;;;20.58;5.30;;;11.00;99.90;;;;;;4975410;28;20062;-58
2023/03/13 07:00:38;;;;;;;14.35;5.53;;;11.00;99.90;;;;;;4985239;28;20073;-58
2023/03/13 07:03:04;;;;;;;20.25;5.28;;;11.00;99.90;;;;;;4981274;28;20050;-58
2023/03/13 07:05:30;;;;;;;22.05;6.00;;;11.00;99.90;;;;;;4982542;28;20042;-58
2023/03/13 07:07:55;;;;;;;17.80;5.30;;;11.10;99.90;;;;;;4978871;28;20133;-58
2023/03/13 07:10:21;;;;;;;24.48;5.72;;;11.10;99.90;;;;;;4981638;28;20042;-58
2023/03/13 07:12:47;;;;;;;20.10;5.43;;;11.10;99.90;;;;;;4967329;28;20062;-58
2023/03/13 07:15:13;;;;;;;19.95;5.18;;;11.20;99.90;;;;;;4985886;28;20057;-58
2023/03/13 07:17:39;;;;;;;14.18;5.43;;;11.20;99.90;;;;;;4986815;28;20042;-57
2023/03/13 07:20:08;;;;;;;18.48;5.22;;;11.20;99.90;;;;;;4987918;28;20050;-58
2023/03/13 07:22:34;;;;;;;16.45;5.45;;;11.30;99.90;;;;;;4986241;28;20135;-58
2023/03/13 07:25:00;;;;;;;15.50;4.90;;;11.30;99.90;;;;;;4985143;28;20815;-58
2023/03/13 07:27:26;;;;;;;15.80;4.85;;;11.30;99.90;;;;;;4986347;28;20493;-58
2023/03/13 07:29:51;;;;;;;16.15;5.38;;;11.30;99.90;;;;;;4986150;28;20050;-58
2023/03/13 07:32:17;;;;;;;18.02;4.68;;;11.40;99.90;;;;;;4957447;28;20177;-58
2023/03/13 07:34:43;;;;;;;17.60;5.13;;;11.40;99.90;;;;;;4965209;28;20529;-58
2023/03/13 07:37:11;;;;;;;16.00;5.47;;;11.40;99.90;;;;;;4958714;28;20050;-58
2023/03/13 07:39:37;;;;;;;16.25;4.55;;;11.40;99.90;;;;;;4973412;28;20060;-58
2023/03/13 07:42:02;;;;;;;18.92;4.68;;;11.40;99.90;;;;;;4964836;28;20046;-58
2023/03/13 07:44:28;;;;;;;12.48;4.15;;;11.40;99.90;;;;;;4975134;28;20058;-58
2023/03/13 07:46:54;;;;;;;15.68;4.53;;;11.40;99.90;;;;;;4975187;28;20054;-58
2023/03/13 07:49:20;;;;;;;18.27;4.47;;;11.40;99.90;;;;;;4978918;28;20058;-58
2023/03/13 07:51:47;;;;;;;13.05;4.50;;;11.40;99.90;;;;;;4976058;28;20098;-58
2023/03/13 07:54:13;;;;;;;13.00;4.32;;;11.30;99.90;;;;;;4973457;28;20045;-58
2023/03/13 07:56:39;;;;;;;14.15;3.97;;;11.30;99.90;;;;;;4972452;28;20493;-57
2023/03/13 07:59:05;;;;;;;14.98;4.70;;;11.30;99.90;;;;;;4952763;28;20046;-57
2023/03/13 08:01:31;;;;;;;9.35;3.53;;;11.30;99.90;;;;;;4985461;28;20042;-58
2023/03/13 08:03:59;;;;;;;13.02;4.18;;;11.30;99.90;;;;;;4952428;28;20133;-58
2023/03/13 08:06:26;;;;;;;19.52;4.63;;;11.30;99.90;;;;;;4985584;28;20046;-58
2023/03/13 08:08:52;;;;;;;14.20;4.00;;;11.30;99.90;;;;;;4988054;28;20042;-58
2023/03/13 08:11:26;;;;;;;12.25;3.65;;;11.30;99.90;;;;;;4988463;28;20127;-58
2023/03/13 08:13:53;;;;;;;14.35;4.25;;;11.30;99.90;;;;;;4987251;28;20125;-58
2023/03/13 08:16:22;;;;;;;13.73;3.92;;;11.30;99.90;;;;;;4986835;28;20501;-58
2023/03/13 08:18:49;;;;;;;11.15;3.63;;;11.40;99.90;;;;;;4987808;28;20046;-58
2023/03/13 08:21:19;;;;;;;9.73;3.60;;;11.40;99.90;;;;;;4987085;28;20133;-58
2023/03/13 08:23:46;;;;;;;9.73;3.15;;;11.40;99.90;;;;;;4982154;28;20494;-58
2023/03/13 08:26:16;;;;;;;10.98;3.50;;;11.50;99.90;;;;;;4974187;28;20989;-58
2023/03/13 08:28:44;;;;;;;9.02;3.10;;;11.50;99.90;;;;;;4956375;28;20126;-59
2023/03/13 08:31:12;;;;;;;10.43;3.00;;;11.60;99.90;;;;;;4957744;28;20051;-59
2023/03/13 08:33:40;;;;;;;7.53;2.90;;;11.70;99.90;;;;;;4974465;28;20057;-58
2023/03/13 08:36:20;;;;;;;9.02;2.80;;;11.80;99.90;;;;;;4968214;28;20074;-58
2023/03/13 08:38:47;;;;;;;8.88;2.55;;;11.80;99.90;;;;;;4974429;28;20053;-59
2023/03/13 08:41:15;;;;;;;9.50;2.85;;;11.90;99.90;;;;;;4960404;28;20058;-58
2023/03/13 08:43:41;;;;;;;8.50;2.80;;;12.00;99.90;;;;;;4964245;28;20520;-59
2023/03/13 08:46:06;;;;;;;12.73;2.90;;;12.10;99.90;;;;;;4973888;28;20126;-58
2023/03/13 08:48:32;;;;;;;8.75;2.65;;;12.20;99.90;;;;;;4973826;28;20077;-59
2023/03/13 08:50:59;;;;;;;9.90;2.70;;;12.30;99.90;;;;;;4975563;28;20062;-59
2023/03/13 08:53:25;;;;;;;8.68;2.60;;;12.40;99.90;;;;;;4980864;28;20046;-58
2023/03/13 08:55:52;;;;;;;9.77;2.45;;;12.50;99.90;;;;;;4957121;28;20055;-59
2023/03/13 08:58:18;;;;;;;9.20;2.67;;;12.50;99.90;;;;;;4958066;28;20485;-58
2023/03/13 09:00:44;;;;;;;7.28;1.90;;;12.60;99.90;;;;;;4976500;28;20100;-58
2023/03/13 09:03:09;;;;;;;8.45;2.20;;;12.70;99.90;;;;;;4981938;28;20129;-58
2023/03/13 09:05:37;;;;;;;9.82;2.20;;;12.80;99.90;;;;;;4988819;28;20050;-58
2023/03/13 09:08:03;;;;;;;7.57;2.58;;;12.90;99.90;;;;;;4986260;28;20046;-58
2023/03/13 09:10:31;;;;;;;7.05;2.00;;;12.90;99.90;;;;;;4985735;28;20042;-59
2023/03/13 09:12:57;;;;;;;6.32;2.35;;;13.00;99.90;;;;;;4952959;28;20137;-57
2023/03/13 09:15:23;;;;;;;5.85;1.65;;;13.00;99.90;;;;;;4985576;28;21138;-57
2023/03/13 09:17:49;;;;;;;7.03;2.10;;;13.00;99.90;;;;;;4988542;28;20061;-58
2023/03/13 09:20:15;;;;;;;7.20;2.03;;;12.90;99.90;;;;;;4985965;28;20042;-58
2023/03/13 09:22:40;;;;;;;5.13;2.10;;;12.90;99.90;;;;;;4986518;28;20097;-59
2023/03/13 09:25:06;;;;;;;11.02;2.70;;;12.80;99.90;;;;;;4985885;28;20042;-58
2023/03/13 09:27:32;;;;;;;8.63;2.20;;;12.80;99.90;;;;;;4985085;28;20061;-58
2023/03/13 09:29:58;;;;;;;10.63;2.10;;;12.80;99.90;;;;;;4983953;28;20039;-57
2023/03/13 09:32:24;;;;;;;13.30;2.90;;;12.80;99.90;;;;;;4972853;28;20100;-58
2023/03/13 09:34:49;;;;;;;9.10;2.33;;;12.80;99.90;;;;;;4973456;28;20047;-58
2023/03/13 09:37:15;;;;;;;14.30;2.60;;;12.80;99.90;;;;;;4976080;28;20054;-59
2023/03/13 09:39:41;;;;;;;13.88;3.28;;;12.80;99.90;;;;;;4979025;28;20050;-58
2023/03/13 09:42:28;;;;;;;13.10;3.20;;;12.70;99.90;;;;;;4958255;28;20050;-58
2023/03/13 09:45:18;;;;;;;11.93;3.00;;;12.70;99.90;;;;;;4980106;28;20042;-58
2023/03/13 09:47:49;;;;;;;14.05;3.40;;;12.60;99.90;;;;;;4979817;28;20377;-59
2023/03/13 09:50:38;;;;;;;17.70;3.33;;;12.60;99.90;;;;;;4974884;28;20118;-58
2023/03/13 09:53:35;;;;;;;13.95;3.17;;;12.60;99.90;;;;;;4979776;28;20062;-58
2023/03/13 09:56:04;;;;;;;15.05;3.72;;;12.70;99.90;;;;;;4974851;28;20125;-58
2023/03/13 09:58:30;;;;;;;16.52;3.33;;;12.70;99.90;;;;;;4978737;28;20065;-59
2023/03/13 10:01:03;;;;;;;9.90;2.90;;;12.70;99.90;;;;;;4985669;28;20050;-58
2023/03/13 10:03:37;;;;;;;11.13;3.08;;;12.70;99.90;;;;;;4972051;28;21178;-58
2023/03/13 10:06:19;;;;;;;13.13;3.42;;;12.80;99.90;;;;;;4990399;28;20136;-58
2023/03/13 10:08:45;;;;;;;12.00;3.03;;;12.90;99.90;;;;;;4991591;28;20042;-58
2023/03/13 10:11:40;;;;;;;15.32;3.30;;;13.10;99.90;;;;;;4988309;28;20042;-58
2023/03/13 10:14:56;;;;;;;12.55;3.15;;;13.30;99.90;;;;;;4987238;28;20125;-59
2023/03/13 10:17:32;;;;;;;21.33;3.97;;;13.40;99.90;;;;;;4928224;29;20111;-58
2023/03/13 10:20:21;;;;;;;17.77;3.40;;;13.60;99.90;;;;;;4913963;29;20051;-59
2023/03/13 10:23:01;;;;;;;19.90;3.60;;;13.70;99.90;;;;;;4957139;28;20077;-58
2023/03/13 10:25:30;;;;;;;18.55;3.78;;;13.80;99.90;;;;;;4975755;28;20054;-58
2023/03/13 10:27:56;;;;;;;24.58;4.32;;;13.90;99.90;;;;;;4952735;28;20070;-58
2023/03/13 10:30:29;;;;;;;19.50;4.15;;;13.90;99.90;;;;;;4982697;28;20050;-58
2023/03/13 10:33:07;;;;;;;21.52;3.90;;;14.00;99.90;;;;;;4976407;28;20073;-59
2023/03/13 10:35:39;;;;;;;18.10;3.70;;;14.10;99.90;;;;;;4975470;28;20053;-58
2023/03/13 10:38:10;;;;;;;20.35;4.20;;;14.20;99.90;;;;;;4975398;28;20046;-59
2023/03/13 10:40:36;;;;;;;19.17;4.28;;;14.30;99.90;;;;;;4975978;28;20105;-59
2023/03/13 10:43:18;;;;;;;20.70;4.00;;;14.40;99.90;;;;;;4974347;28;20497;-58
2023/03/13 10:45:44;;;;;;;20.67;4.13;;;14.50;99.90;;;;;;4974905;28;20070;-58
2023/03/13 10:48:21;;;;;;;19.90;3.75;;;14.60;99.90;;;;;;4974856;28;20145;-58
2023/03/13 10:50:50;;;;;;;18.90;3.70;;;14.60;99.90;;;;;;4978409;28;21740;-58
2023/03/13 10:53:30;;;;;;;18.95;3.42;;;14.60;99.90;;;;;;4976464;28;20086;-58
2023/03/13 10:56:14;;;;;;;19.08;4.63;;;14.50;99.90;;;;;;4980693;28;20204;-58
2023/03/13 10:58:49;;;;;;;19.95;4.03;;;14.50;99.90;;;;;;4975265;28;20579;-58
2023/03/13 11:01:20;;;;;;;25.02;4.90;;;14.40;99.90;;;;;;4974623;28;20054;-59
2023/03/13 11:03:48;;;;;;;18.05;3.58;;;14.50;99.90;;;;;;4973661;28;20054;-58
2023/03/13 11:06:28;;;;;;;21.02;3.90;;;14.60;99.90;;;;;;4976832;28;20469;-58
2023/03/13 11:09:14;;;;;;;19.58;3.80;;;14.70;99.90;;;;;;4972464;28;20096;-59
2023/03/13 11:11:49;;;;;;;17.23;3.33;;;14.70;99.90;;;;;;4978554;28;20104;-58
2023/03/13 11:14:21;;;;;;;22.95;4.05;;;14.60;99.90;;;;;;4972752;28;20050;-59
2023/03/13 11:16:51;;;;;;;22.20;4.13;;;14.50;99.90;;;;;;4973087;28;20505;-59
2023/03/13 11:19:33;;;;;;;18.45;3.75;;;14.50;99.90;;;;;;4976183;28;20042;-58
2023/03/13 11:22:13;;;;;;;15.38;3.20;;;14.50;99.90;;;;;;4974938;28;20081;-58
2023/03/13 11:24:50;;;;;;;15.18;3.47;;;14.50;99.90;;;;;;4983815;28;20046;-58
2023/03/13 11:27:37;;;;;;;16.15;3.08;;;14.50;99.90;;;;;;4971298;28;20112;-59
2023/03/13 11:30:41;;;;;;;13.45;2.97;;;14.40;99.90;;;;;;4989673;28;20045;-59
2023/03/13 11:33:23;;;;;;;14.85;3.03;;;14.60;99.90;;;;;;4989141;28;20544;-59
2023/03/13 11:36:12;;;;;;;15.67;2.80;;;14.70;99.90;;;;;;4988375;28;20053;-58
2023/03/13 11:38:46;;;;;;;15.90;2.85;;;14.70;99.90;;;;;;4981053;28;20067;-59
2023/03/13 11:41:25;;;;;;;15.93;3.20;;;14.60;99.90;;;;;;4976345;28;20046;-58
2023/03/13 11:44:00;;;;;;;15.18;3.20;;;14.60;99.90;;;;;;4988847;28;20107;-58
2023/03/13 11:46:28;;;;;;;15.88;3.03;;;14.70;99.90;;;;;;4987737;28;20049;-57
2023/03/13 11:49:16;;;;;;;14.05;2.75;;;14.80;99.90;;;;;;4987175;28;20046;-58
2023/03/13 11:51:51;;;;;;;12.52;2.90;;;14.90;99.90;;;;;;4988179;28;20038;-58
2023/03/13 11:54:40;;;;;;;13.10;2.75;;;14.90;99.90;;;;;;4976706;28;20077;-59
2023/03/13 11:57:31;;;;;;;16.85;3.28;;;14.80;99.90;;;;;;4977196;28;20053;-58
2023/03/13 12:00:06;;;;;;;17.58;2.97;;;14.80;99.90;;;;;;4975163;28;20065;-59
2023/03/13 12:02:38;;;;;;;14.55;3.17;;;14.70;99.90;;;;;;4974892;28;20058;-57
2023/03/13 12:05:09;;;;;;;11.45;2.78;;;14.80;99.90;;;;;;4974637;28;20054;-58
2023/03/13 12:07:40;;;;;;;14.52;3.13;;;14.70;99.90;;;;;;4973952;28;20589;-58
2023/03/13 12:10:16;;;;;;;12.32;2.97;;;14.70;99.90;;;;;;4965848;28;20082;-58
2023/03/13 12:12:48;;;;;;;18.35;3.10;;;14.70;99.90;;;;;;4976450;28;20046;-58
2023/03/13 12:15:21;;;;;;;13.32;3.45;;;14.80;99.90;;;;;;4975821;28;20244;-58
2023/03/13 12:17:52;;;;;;;15.63;3.22;;;15.00;99.90;;;;;;4975094;28;20225;-58
2023/03/13 12:20:26;;;;;;;16.02;3.83;;;15.10;99.90;;;;;;4956234;28;20058;-58
2023/03/13 12:23:10;;;;;;;18.13;3.40;;;15.30;99.90;;;;;;4973834;28;20050;-58
2023/03/13 12:25:51;;;;;;;17.40;3.90;;;15.30;99.90;;;;;;4973121;28;20054;-58
2023/03/13 12:28:22;;;;;;;20.73;3.90;;;15.50;99.90;;;;;;4959264;28;20145;-58
2023/03/13 12:31:20;;;;;;;19.17;3.83;;;15.70;99.90;;;;;;4972428;28;20049;-58
2023/03/13 12:34:05;;;;;;;16.73;3.85;;;15.70;99.90;;;;;;4973034;28;20574;-58
2023/03/13 12:36:45;;;;;;;21.45;4.32;;;15.70;99.90;;;;;;4967004;28;20078;-58
2023/03/13 12:39:21;;;;;;;18.05;4.40;;;15.70;99.90;;;;;;4974051;28;20037;-58
2023/03/13 12:42:12;;;;;;;19.50;3.95;;;15.70;99.90;;;;;;4973034;28;20564;-57
2023/03/13 12:44:39;;;;;;;22.60;4.55;;;15.90;99.90;;;;;;4974807;28;20057;-58
2023/03/13 12:47:17;;;;;;;16.70;4.00;;;16.00;99.90;;;;;;4973155;28;20132;-58
2023/03/13 12:50:24;;;;;;;18.08;4.07;;;16.10;99.80;;;;;;4972398;28;20057;-59
2023/03/13 12:53:15;;;;;;;20.63;4.88;;;16.10;99.50;;;;;;4957369;28;20061;-58
2023/03/13 12:56:04;;;;;;;22.48;4.45;;;16.20;99.80;;;;;;4978755;28;20053;-58